createdAt,value
2022-07-27T00:00:49.496Z,99.90
2022-07-27T00:03:16.559Z,99.90
2022-07-27T00:05:43.264Z,99.90
2022-07-27T00:08:10.229Z,99.90
2022-07-27T00:10:37.506Z,99.90
2022-07-27T00:13:06.099Z,99.90
2022-07-27T00:15:34.262Z,99.90
2022-07-27T00:18:01.114Z,99.90
2022-07-27T00:20:28.987Z,99.90
2022-07-27T00:22:56.132Z,99.90
2022-07-27T00:25:23.366Z,99.90
2022-07-27T00:27:50.088Z,99.90
2022-07-27T00:30:17.171Z,99.90
2022-07-27T00:32:44.012Z,99.90
2022-07-27T00:35:11.683Z,99.90
2022-07-27T00:37:38.838Z,99.90
2022-07-27T00:40:06.513Z,99.90
2022-07-27T00:42:33.650Z,99.90
2022-07-27T00:45:03.054Z,99.90
2022-07-27T00:47:30.042Z,99.90
2022-07-27T00:49:58.158Z,99.90
2022-07-27T00:52:25.732Z,99.90
2022-07-27T00:54:53.113Z,99.90
2022-07-27T00:57:20.248Z,99.90
2022-07-27T00:59:46.867Z,99.90
2022-07-27T01:02:19.484Z,99.90
2022-07-27T01:04:47.338Z,99.90
2022-07-27T01:07:15.801Z,99.90
2022-07-27T01:09:58.400Z,99.90
2022-07-27T01:12:30.427Z,99.90
2022-07-27T01:14:58.127Z,99.90
2022-07-27T01:17:26.527Z,99.90
2022-07-27T01:19:53.331Z,99.90
2022-07-27T01:22:20.208Z,99.90
2022-07-27T01:24:47.816Z,99.90
2022-07-27T01:27:14.609Z,99.90
2022-07-27T01:29:41.840Z,99.90
2022-07-27T01:32:08.759Z,99.90
2022-07-27T01:34:35.852Z,99.90
2022-07-27T01:37:03.757Z,99.90
2022-07-27T01:39:31.493Z,99.90
2022-07-27T01:41:59.180Z,99.90
2022-07-27T01:44:26.078Z,99.90
2022-07-27T01:46:52.965Z,99.90
2022-07-27T01:49:19.835Z,99.90
2022-07-27T01:51:46.703Z,99.90
2022-07-27T01:54:13.702Z,99.90
2022-07-27T01:56:41.543Z,99.90
2022-07-27T01:59:08.411Z,99.90
2022-07-27T02:01:43.496Z,99.90
2022-07-27T02:04:10.132Z,99.90
2022-07-27T02:06:36.811Z,99.90
2022-07-27T02:09:03.629Z,99.90
2022-07-27T02:11:49.933Z,99.90
2022-07-27T02:14:16.741Z,99.90
2022-07-27T02:16:43.601Z,99.90
2022-07-27T02:19:11.227Z,99.90
2022-07-27T02:21:38.275Z,99.90
2022-07-27T02:24:05.346Z,99.90
2022-07-27T02:26:32.008Z,99.90
2022-07-27T02:28:58.637Z,99.90
2022-07-27T02:31:25.322Z,99.90
2022-07-27T02:33:52.072Z,99.90
2022-07-27T02:36:19.299Z,99.90
2022-07-27T02:38:45.975Z,99.90
2022-07-27T02:41:12.596Z,99.90
2022-07-27T02:43:39.234Z,99.90
2022-07-27T02:46:06.047Z,99.90
2022-07-27T02:48:33.268Z,99.90
2022-07-27T02:51:01.901Z,99.90
2022-07-27T02:53:29.654Z,99.90
2022-07-27T02:55:57.421Z,99.90
2022-07-27T02:58:24.667Z,99.90
2022-07-27T03:00:54.951Z,99.90
2022-07-27T03:03:24.898Z,99.90
2022-07-27T03:06:03.221Z,99.90
2022-07-27T03:08:29.899Z,99.90
2022-07-27T03:10:56.525Z,99.90
2022-07-27T03:13:23.256Z,99.90
2022-07-27T03:15:49.927Z,99.90
2022-07-27T03:18:16.714Z,99.90
2022-07-27T03:20:43.488Z,99.90
2022-07-27T03:23:10.195Z,99.90
2022-07-27T03:25:36.944Z,99.90
2022-07-27T03:28:04.434Z,99.90
2022-07-27T03:30:32.616Z,99.90
2022-07-27T03:32:59.355Z,99.90
2022-07-27T03:35:26.008Z,99.90
2022-07-27T03:37:52.688Z,99.90
2022-07-27T03:40:19.415Z,99.90
2022-07-27T03:42:46.188Z,99.90
2022-07-27T03:45:12.885Z,99.90
2022-07-27T03:47:39.550Z,99.90
2022-07-27T03:50:06.593Z,99.90
2022-07-27T03:52:33.278Z,99.90
2022-07-27T03:55:00.099Z,99.90
2022-07-27T03:57:26.801Z,99.90
2022-07-27T03:59:54.122Z,99.90
2022-07-27T04:02:20.879Z,99.90
2022-07-27T04:04:47.747Z,99.90
2022-07-27T04:07:14.409Z,99.90
2022-07-27T04:09:41.558Z,99.90
2022-07-27T04:12:10.598Z,99.90
2022-07-27T04:14:37.247Z,99.90
2022-07-27T04:17:04.589Z,99.90
2022-07-27T04:19:31.473Z,99.90
2022-07-27T04:21:58.217Z,99.90
2022-07-27T04:24:25.095Z,99.90
2022-07-27T04:26:51.840Z,99.90
2022-07-27T04:32:10.604Z,99.90
2022-07-27T04:34:37.442Z,99.90
2022-07-27T04:37:04.493Z,99.90
2022-07-27T04:39:31.338Z,99.90
2022-07-27T04:41:58.180Z,99.90
2022-07-27T04:44:24.918Z,99.90
2022-07-27T04:46:51.961Z,99.90
2022-07-27T04:49:18.882Z,99.90
2022-07-27T04:51:46.060Z,99.90
2022-07-27T04:54:13.007Z,99.90
2022-07-27T04:56:40.386Z,99.90
2022-07-27T04:59:07.611Z,99.90
2022-07-27T05:01:35.397Z,99.90
2022-07-27T05:04:04.345Z,99.90
2022-07-27T05:06:33.085Z,99.90
2022-07-27T05:09:00.303Z,99.90
2022-07-27T05:11:27.248Z,99.90
2022-07-27T05:13:54.093Z,99.90
2022-07-27T05:16:23.880Z,99.90
2022-07-27T05:21:46.056Z,99.90
2022-07-27T05:24:13.002Z,99.90
2022-07-27T05:26:40.151Z,99.90
2022-07-27T05:29:06.996Z,99.90
2022-07-27T05:31:34.218Z,99.90
2022-07-27T05:34:01.496Z,99.90
2022-07-27T05:36:28.747Z,99.90
2022-07-27T05:38:55.693Z,99.90
2022-07-27T05:41:26.836Z,99.90
2022-07-27T05:43:55.263Z,99.90
2022-07-27T05:46:23.482Z,99.90
2022-07-27T05:48:50.835Z,99.90
2022-07-27T05:51:17.992Z,99.90
2022-07-27T05:53:45.047Z,99.90
2022-07-27T05:56:12.397Z,99.90
2022-07-27T05:58:39.646Z,99.90
2022-07-27T06:01:06.543Z,99.90
2022-07-27T06:03:33.529Z,99.90
2022-07-27T06:09:10.669Z,99.90
2022-07-27T06:11:37.688Z,99.90
2022-07-27T06:14:04.628Z,99.90
2022-07-27T06:16:31.534Z,99.90
2022-07-27T06:18:58.624Z,99.90
2022-07-27T06:21:28.030Z,99.90
2022-07-27T06:23:55.595Z,99.90
2022-07-27T06:26:22.945Z,99.90
2022-07-27T06:28:49.989Z,99.90
2022-07-27T06:31:16.860Z,99.90
2022-07-27T06:33:46.157Z,99.90
2022-07-27T06:36:17.273Z,99.90
2022-07-27T06:38:44.332Z,99.90
2022-07-27T06:41:11.165Z,99.90
2022-07-27T06:43:38.322Z,99.90
2022-07-27T06:46:07.415Z,99.90
2022-07-27T06:48:34.615Z,99.90
2022-07-27T06:51:01.606Z,99.90
2022-07-27T06:53:29.076Z,99.90
2022-07-27T06:56:05.727Z,99.90
2022-07-27T06:58:34.032Z,99.90
2022-07-27T07:01:02.302Z,99.90
2022-07-27T07:03:29.781Z,99.90
2022-07-27T07:05:56.862Z,99.90
2022-07-27T07:08:23.694Z,99.90
2022-07-27T07:10:50.614Z,99.90
2022-07-27T07:13:17.446Z,99.90
2022-07-27T07:15:44.286Z,99.90
2022-07-27T07:18:12.150Z,99.90
2022-07-27T07:20:38.851Z,99.90
2022-07-27T07:23:06.068Z,99.90
2022-07-27T07:25:34.520Z,99.90
2022-07-27T07:28:01.949Z,99.90
2022-07-27T07:30:29.247Z,99.90
2022-07-27T07:32:56.286Z,99.90
2022-07-27T07:35:23.539Z,99.90
2022-07-27T07:37:50.918Z,99.90
2022-07-27T07:43:06.304Z,99.90
2022-07-27T07:45:35.536Z,99.90
2022-07-27T07:48:02.294Z,99.90
2022-07-27T07:50:29.063Z,99.90
2022-07-27T07:52:56.005Z,99.90
2022-07-27T07:55:25.482Z,99.90
2022-07-27T07:57:52.787Z,99.90
2022-07-27T08:00:20.214Z,99.90
2022-07-27T08:02:52.576Z,99.90
2022-07-27T08:05:20.108Z,99.90
2022-07-27T08:07:47.208Z,99.90
2022-07-27T08:10:15.691Z,99.90
2022-07-27T08:12:45.912Z,99.90
2022-07-27T08:15:14.290Z,99.90
2022-07-27T08:17:41.135Z,99.80
2022-07-27T08:20:08.262Z,99.20
2022-07-27T08:22:35.640Z,99.50
2022-07-27T08:25:03.547Z,98.90
2022-07-27T08:27:30.329Z,98.60
2022-07-27T08:30:09.075Z,98.20
2022-07-27T08:32:55.231Z,97.70
2022-07-27T08:35:22.412Z,97.10
2022-07-27T08:37:49.169Z,97.40
2022-07-27T08:43:05.504Z,96.50
2022-07-27T08:45:32.926Z,96.20
2022-07-27T08:47:59.697Z,95.80
2022-07-27T08:50:30.681Z,94.20
2022-07-27T08:53:05.572Z,94.30
2022-07-27T08:55:34.449Z,93.90
2022-07-27T08:58:03.371Z,93.90
2022-07-27T09:00:31.319Z,93.70
2022-07-27T09:02:58.155Z,94.40
2022-07-27T09:05:25.308Z,94.00
2022-07-27T09:07:55.216Z,94.00
2022-07-27T09:10:33.106Z,93.60
2022-07-27T09:13:00.577Z,93.60
2022-07-27T09:15:34.267Z,92.90
2022-07-27T09:18:15.914Z,92.80
2022-07-27T09:20:42.600Z,92.10
2022-07-27T09:23:09.236Z,91.80
2022-07-27T09:26:02.288Z,91.70
2022-07-27T09:28:30.997Z,91.10
2022-07-27T09:31:08.892Z,90.40
2022-07-27T09:33:47.194Z,90.20
2022-07-27T09:36:15.197Z,89.70
2022-07-27T09:38:55.271Z,87.60
2022-07-27T09:41:27.109Z,89.10
2022-07-27T09:46:48.527Z,89.60
2022-07-27T09:49:30.546Z,89.90
2022-07-27T09:52:00.613Z,89.10
2022-07-27T09:54:41.069Z,88.20
2022-07-27T09:57:12.986Z,85.30
2022-07-27T09:59:40.133Z,83.80
2022-07-27T10:02:07.554Z,82.00
2022-07-27T10:04:34.562Z,82.80
2022-07-27T10:07:04.562Z,82.90
2022-07-27T10:09:34.894Z,81.20
2022-07-27T10:12:04.846Z,82.00
2022-07-27T10:14:32.759Z,80.30
2022-07-27T10:16:59.646Z,78.60
2022-07-27T10:19:41.366Z,79.30
2022-07-27T10:22:08.108Z,79.40
2022-07-27T10:24:37.129Z,80.30
2022-07-27T10:27:18.097Z,80.70
2022-07-27T10:29:46.802Z,80.10
2022-07-27T10:32:33.222Z,80.50
2022-07-27T10:35:03.199Z,80.10
2022-07-27T10:37:34.849Z,80.90
2022-07-27T10:40:25.717Z,81.60
2022-07-27T10:43:16.691Z,82.20
2022-07-27T10:45:55.305Z,82.00
2022-07-27T10:48:37.490Z,83.30
2022-07-27T10:51:08.544Z,83.20
2022-07-27T10:54:09.451Z,83.10
2022-07-27T10:56:45.439Z,83.00
2022-07-27T10:59:12.150Z,82.80
2022-07-27T11:01:57.128Z,83.30
2022-07-27T11:04:24.860Z,81.70
2022-07-27T11:07:23.449Z,80.50
2022-07-27T11:12:30.994Z,80.90
2022-07-27T11:14:58.906Z,79.90
2022-07-27T11:20:15.290Z,82.00
2022-07-27T11:25:29.164Z,79.70
2022-07-27T11:27:55.891Z,80.10
2022-07-27T11:30:24.843Z,79.20
2022-07-27T11:32:51.819Z,81.30
2022-07-27T11:35:20.189Z,81.60
2022-07-27T11:38:13.499Z,79.90
2022-07-27T11:40:59.396Z,79.40
2022-07-27T11:43:43.295Z,80.20
2022-07-27T11:46:16.592Z,79.80
2022-07-27T11:49:05.542Z,79.00
2022-07-27T11:51:34.600Z,78.90
2022-07-27T11:54:07.441Z,80.40
2022-07-27T11:56:36.537Z,80.40
2022-07-27T11:59:04.922Z,81.50
2022-07-27T12:01:37.342Z,81.40
2022-07-27T12:04:14.399Z,82.60
2022-07-27T12:06:46.589Z,82.20
2022-07-27T12:09:16.892Z,81.00
2022-07-27T12:11:53.452Z,80.10
2022-07-27T12:14:34.533Z,79.40
2022-07-27T12:17:30.200Z,80.10
2022-07-27T12:20:04.239Z,76.40
2022-07-27T12:22:32.708Z,75.60
2022-07-27T12:25:05.713Z,75.70
2022-07-27T12:27:37.831Z,77.10
2022-07-27T12:30:12.545Z,76.10
2022-07-27T12:32:44.098Z,77.00
2022-07-27T12:35:26.287Z,78.50
2022-07-27T12:38:07.990Z,80.60
2022-07-27T12:40:43.182Z,82.20
2022-07-27T12:43:09.931Z,80.50
2022-07-27T12:45:38.389Z,80.60
2022-07-27T12:48:12.341Z,80.60
2022-07-27T12:50:40.983Z,81.60
2022-07-27T12:53:11.233Z,80.20
2022-07-27T12:55:38.376Z,80.40
2022-07-27T12:58:07.530Z,80.40
2022-07-27T13:00:34.498Z,80.40
2022-07-27T13:03:02.280Z,79.70
2022-07-27T13:05:29.365Z,80.40
2022-07-27T13:07:56.515Z,77.60
2022-07-27T13:10:23.346Z,75.60
2022-07-27T13:12:51.006Z,73.30
2022-07-27T13:15:18.467Z,74.10
2022-07-27T13:17:46.153Z,75.60
2022-07-27T13:20:14.221Z,75.10
2022-07-27T13:22:41.971Z,76.70
2022-07-27T13:25:15.287Z,76.60
2022-07-27T13:27:44.549Z,76.20
2022-07-27T13:30:13.331Z,77.00
2022-07-27T13:32:40.591Z,78.10
2022-07-27T13:35:09.130Z,78.90
2022-07-27T13:37:35.915Z,78.60
2022-07-27T13:40:02.710Z,79.80
2022-07-27T13:42:29.411Z,78.90
2022-07-27T13:45:08.752Z,80.50
2022-07-27T13:47:37.523Z,80.40
2022-07-27T13:50:05.503Z,81.40
2022-07-27T13:52:32.134Z,81.50
2022-07-27T13:54:58.896Z,80.50
2022-07-27T13:57:25.609Z,81.70
2022-07-27T13:59:52.564Z,81.10
2022-07-27T14:02:23.006Z,80.40
2022-07-27T14:04:50.969Z,80.20
2022-07-27T14:07:17.929Z,81.00
2022-07-27T14:10:03.605Z,81.40
2022-07-27T14:12:30.445Z,81.80
2022-07-27T14:14:57.077Z,82.10
2022-07-27T14:17:23.711Z,81.50
2022-07-27T14:19:50.331Z,81.30
2022-07-27T14:22:16.964Z,81.50
2022-07-27T14:24:43.726Z,82.50
2022-07-27T14:27:10.381Z,82.30
2022-07-27T14:29:37.084Z,81.90
2022-07-27T14:32:04.103Z,82.90
2022-07-27T14:34:31.105Z,83.90
2022-07-27T14:36:57.815Z,84.20
2022-07-27T14:39:24.437Z,82.00
2022-07-27T14:41:51.226Z,81.60
2022-07-27T14:44:18.958Z,81.20
2022-07-27T14:46:46.230Z,82.30
2022-07-27T14:49:14.583Z,82.70
2022-07-27T14:51:41.397Z,81.90
2022-07-27T14:54:08.200Z,81.20
2022-07-27T14:56:36.411Z,82.00
2022-07-27T14:59:03.759Z,81.90
2022-07-27T15:01:30.631Z,82.50
2022-07-27T15:03:57.521Z,82.20
2022-07-27T15:06:24.218Z,81.60
2022-07-27T15:08:50.916Z,81.30
2022-07-27T15:11:17.626Z,80.80
2022-07-27T15:13:44.271Z,80.70
2022-07-27T15:16:11.922Z,81.50
2022-07-27T15:18:39.185Z,82.90
2022-07-27T15:21:13.326Z,82.60
2022-07-27T15:23:42.026Z,81.50
2022-07-27T15:26:08.740Z,81.30
2022-07-27T15:28:36.432Z,80.70
2022-07-27T15:31:03.362Z,82.10
2022-07-27T15:33:30.334Z,81.30
2022-07-27T15:35:57.168Z,80.50
2022-07-27T15:38:24.077Z,80.80
2022-07-27T15:40:50.821Z,81.90
2022-07-27T15:43:18.769Z,81.50
2022-07-27T15:45:48.428Z,80.80
2022-07-27T15:48:16.965Z,81.30
2022-07-27T15:50:48.413Z,81.80
2022-07-27T15:53:15.509Z,81.40
2022-07-27T15:55:43.873Z,81.10
2022-07-27T15:58:11.191Z,80.60
2022-07-27T16:00:41.053Z,80.20
2022-07-27T16:03:14.759Z,80.80
2022-07-27T16:05:43.586Z,79.20
2022-07-27T16:08:10.943Z,80.00
2022-07-27T16:10:38.915Z,79.30
2022-07-27T16:13:07.302Z,79.20
2022-07-27T16:15:53.946Z,78.60
2022-07-27T16:18:21.669Z,79.60
2022-07-27T16:20:48.811Z,78.70
2022-07-27T16:23:18.991Z,79.20
2022-07-27T16:26:10.561Z,79.30
2022-07-27T16:28:44.975Z,79.50
2022-07-27T16:31:14.162Z,78.90
2022-07-27T16:33:44.282Z,79.10
2022-07-27T16:36:12.583Z,78.00
2022-07-27T16:38:49.645Z,78.20
2022-07-27T16:41:19.170Z,78.30
2022-07-27T16:46:37.031Z,78.00
2022-07-27T16:49:04.390Z,77.80
2022-07-27T16:51:31.299Z,78.70
2022-07-27T16:53:58.143Z,78.20
2022-07-27T16:56:25.392Z,78.70
2022-07-27T16:58:52.334Z,78.60
2022-07-27T17:01:26.291Z,78.60
2022-07-27T17:03:55.331Z,79.20
2022-07-27T17:06:23.206Z,79.50
2022-07-27T17:08:50.044Z,79.50
2022-07-27T17:11:21.753Z,79.60
2022-07-27T17:13:49.812Z,80.00
2022-07-27T17:16:17.279Z,80.20
2022-07-27T17:18:44.390Z,80.10
2022-07-27T17:21:13.126Z,80.20
2022-07-27T17:23:42.138Z,80.50
2022-07-27T17:26:10.644Z,80.00
2022-07-27T17:28:42.194Z,80.70
2022-07-27T17:31:11.321Z,80.00
2022-07-27T17:33:39.674Z,79.70
2022-07-27T17:36:12.336Z,79.90
2022-07-27T17:38:41.137Z,79.30
2022-07-27T17:41:08.393Z,79.60
2022-07-27T17:43:38.633Z,79.70
2022-07-27T17:46:07.497Z,79.70
2022-07-27T17:49:00.724Z,79.70
2022-07-27T17:51:28.010Z,79.60
2022-07-27T17:53:55.071Z,79.90
2022-07-27T17:56:22.005Z,80.20
2022-07-27T17:58:49.468Z,80.80
2022-07-27T18:01:16.511Z,80.00
2022-07-27T18:03:43.691Z,80.60
2022-07-27T18:06:10.509Z,80.80
2022-07-27T18:08:37.651Z,80.90
2022-07-27T18:11:04.699Z,81.30
2022-07-27T18:13:38.858Z,81.80
2022-07-27T18:16:09.480Z,81.80
2022-07-27T18:18:37.327Z,81.30
2022-07-27T18:21:04.869Z,81.90
2022-07-27T18:23:31.826Z,81.90
2022-07-27T18:25:58.860Z,82.30
2022-07-27T18:28:25.713Z,82.20
2022-07-27T18:33:47.449Z,82.00
2022-07-27T18:36:15.419Z,82.70
2022-07-27T18:38:42.463Z,82.30
2022-07-27T18:41:10.741Z,82.90
2022-07-27T18:43:37.579Z,83.10
2022-07-27T18:46:05.543Z,83.20
2022-07-27T18:48:32.646Z,83.60
2022-07-27T18:50:59.545Z,84.00
2022-07-27T18:53:26.589Z,84.10
2022-07-27T18:55:56.471Z,84.60
2022-07-27T18:58:24.271Z,84.50
2022-07-27T19:00:52.233Z,84.20
2022-07-27T19:03:22.146Z,84.30
2022-07-27T19:05:52.920Z,84.60
2022-07-27T19:08:20.549Z,85.10
2022-07-27T19:10:47.696Z,86.00
2022-07-27T19:13:14.645Z,85.20
2022-07-27T19:15:41.998Z,85.40
2022-07-27T19:18:09.051Z,84.80
2022-07-27T19:20:39.160Z,85.60
2022-07-27T19:23:06.939Z,85.20
2022-07-27T19:25:34.199Z,85.50
2022-07-27T19:28:03.728Z,85.60
2022-07-27T19:30:30.911Z,86.00
2022-07-27T19:32:58.194Z,85.50
2022-07-27T19:35:25.331Z,86.00
2022-07-27T19:37:52.292Z,86.00
2022-07-27T19:40:43.480Z,86.10
2022-07-27T19:43:07.488Z,86.20
2022-07-27T19:45:35.333Z,86.60
2022-07-27T19:48:05.839Z,86.60
2022-07-27T19:50:32.914Z,86.50
2022-07-27T19:53:00.575Z,86.30
2022-07-27T19:58:18.735Z,86.40
2022-07-27T20:00:46.599Z,86.50
2022-07-27T20:03:13.440Z,85.90
2022-07-27T20:05:41.853Z,86.00
2022-07-27T20:08:08.659Z,86.30
2022-07-27T20:10:35.725Z,86.10
2022-07-27T20:13:02.884Z,86.50
2022-07-27T20:15:31.860Z,86.00
2022-07-27T20:17:59.238Z,85.80
2022-07-27T20:20:26.973Z,86.10
2022-07-27T20:22:54.639Z,85.30
2022-07-27T20:25:22.918Z,85.60
2022-07-27T20:27:50.482Z,85.60
2022-07-27T20:30:18.765Z,85.30
2022-07-27T20:32:47.838Z,85.60
2022-07-27T20:35:15.200Z,85.20
2022-07-27T20:37:42.967Z,84.70
2022-07-27T20:43:04.195Z,85.10
2022-07-27T20:45:31.260Z,84.70
2022-07-27T20:47:58.296Z,84.80
2022-07-27T20:50:25.344Z,84.70
2022-07-27T20:52:52.481Z,85.40
2022-07-27T20:55:19.431Z,84.90
2022-07-27T20:57:46.877Z,84.90
2022-07-27T21:00:14.317Z,84.10
2022-07-27T21:02:41.535Z,84.40
2022-07-27T21:05:09.151Z,84.80
2022-07-27T21:07:36.371Z,85.00
2022-07-27T21:10:04.278Z,84.30
2022-07-27T21:12:31.234Z,84.50
2022-07-27T21:14:58.259Z,84.20
2022-07-27T21:20:16.523Z,84.40
2022-07-27T21:22:43.779Z,84.90
2022-07-27T21:25:13.206Z,84.90
2022-07-27T21:27:43.604Z,85.00
2022-07-27T21:30:12.707Z,84.60
2022-07-27T21:32:39.846Z,84.80
2022-07-27T21:35:07.449Z,84.60
2022-07-27T21:37:35.282Z,84.90
2022-07-27T21:40:02.313Z,85.10
2022-07-27T21:42:30.486Z,85.30
2022-07-27T21:44:57.401Z,84.90
2022-07-27T21:47:24.389Z,85.60
2022-07-27T21:49:51.444Z,85.10
2022-07-27T21:52:18.683Z,85.70
2022-07-27T21:54:45.620Z,85.80
2022-07-27T21:57:12.568Z,85.90
2022-07-27T21:59:39.419Z,86.00
2022-07-27T22:02:06.463Z,86.00
2022-07-27T22:04:33.566Z,85.70
2022-07-27T22:07:00.555Z,86.10
2022-07-27T22:09:30.770Z,85.90
2022-07-27T22:11:57.718Z,85.90
2022-07-27T22:14:25.324Z,85.70
2022-07-27T22:16:53.016Z,86.20
2022-07-27T22:19:19.947Z,86.00
2022-07-27T22:21:46.713Z,86.20
2022-07-27T22:24:13.745Z,86.30
2022-07-27T22:26:40.655Z,86.40
2022-07-27T22:29:07.385Z,86.50
2022-07-27T22:31:34.055Z,86.80
2022-07-27T22:34:00.731Z,86.40
2022-07-27T22:36:27.405Z,86.50
2022-07-27T22:38:54.168Z,86.90
2022-07-27T22:41:20.780Z,86.40
2022-07-27T22:43:47.431Z,86.30
2022-07-27T22:46:14.043Z,86.40
2022-07-27T22:48:40.889Z,86.60
2022-07-27T22:51:07.752Z,86.60
2022-07-27T22:53:34.877Z,86.80
2022-07-27T22:56:01.543Z,86.70
2022-07-27T22:58:28.149Z,86.50
2022-07-27T23:00:59.401Z,86.50
2022-07-27T23:03:26.335Z,86.20
2022-07-27T23:05:53.005Z,86.90
2022-07-27T23:08:19.617Z,86.80
2022-07-27T23:10:46.295Z,86.80
2022-07-27T23:13:14.653Z,87.00
2022-07-27T23:15:41.646Z,86.90
2022-07-27T23:18:09.064Z,86.80
2022-07-27T23:20:36.421Z,87.00
2022-07-27T23:23:04.146Z,87.40
2022-07-27T23:25:42.291Z,87.30
2022-07-27T23:28:08.930Z,87.40
2022-07-27T23:30:35.580Z,87.20
2022-07-27T23:33:02.451Z,87.40
2022-07-27T23:35:29.240Z,87.40
2022-07-27T23:37:55.944Z,88.00
2022-07-27T23:40:23.479Z,87.30
2022-07-27T23:42:50.409Z,87.90
2022-07-27T23:45:17.637Z,87.80
2022-07-27T23:47:44.393Z,87.60
2022-07-27T23:50:11.621Z,87.40
2022-07-27T23:52:38.269Z,87.60
2022-07-27T23:55:06.763Z,87.40
2022-07-27T23:57:33.495Z,88.00
